Brookland, Arkansas
Current Conditions -  °F | °C
As of 10:53 AM on Thursday 27 Nov 2014 (Local Time) from KJBR Reporting Station
Few Clouds Few Clouds  
Wind Chill: 37°   Ceiling: Unl
Heat Index: 42°   Visibility: 10mi
Dew Point: 31°   Wind: 9mph
Humidity: 65%   Direction: 30°NNE
Pressure: 30.51"   Gusts: NA
Location:  35.9°N, 90.58°W
Report Text: KJBR 271653Z AUTO 03008KT 10SM FEW030 06/M01 A3051 RMK AO2 SLP330 T00561006
Loading
Personal Weather Stations






























Interactive Weather Map New forecast layout! Learn more

10-Day Weather Forecast

Advertisements
Track Severe Weather on mobile